Doddsville, MS (38736)

3:34 PM CDT on August 29, 2014 (GMT -0500)
Cleveland Municipal | Change Station
CLOSE
Current Station
Airport
Location: Cleveland Municipal Airport,
Elevation: 138 ft
Nearby Weather Stations

Elev 138 ft 33.76 °N, 90.76 °W | Updated 19 minutes ago

Light Rain
Light Rain
75 °F
Feels Like 75 °F
N
8
Wind Variable Wind from SW
Gusts 17 mph

Today
High -- | Low -- °F
--% Chance of Precip.
Yesterday
High -- | Low -- °F
Precip. -- in
6:34 AM 7:31 PM
Waxing Crescent, 16% visible
Pressure 29.96 in
Visibility 7.0 miles
Clouds Scattered Clouds 4900 ft
Mostly Cloudy 9000 ft
Overcast 11000 ft
Dew Point 74 °F
Humidity 95%
Rainfall 0.01 in
Snow Depth Not available.
UV 2 out of 12
Pollen 9.40 out of 12
Air Quality Not available.
Flu Activity Not available.
METAR KRNV 292015Z AUTO 22007G15KT 7SM -RA SCT049 BKN090 OVC110 24/23 A2996 RMK AO2 LTG DSNT W THRU NE T02390231

More Conditions Fewer Conditions

Pressure 29.96 in
Visibility 7.0 miles
Clouds Scattered Clouds 4900 ft
Mostly Cloudy 9000 ft
Overcast 11000 ft
Dew Point 74 °F
Humidity 95%
Rainfall 0.01 in
Snow Depth Not available.
UV 2 out of 12
Pollen 9.40 out of 12
Air Quality Not available.
Flu Activity Not available.
METAR KRNV 292015Z AUTO 22007G15KT 7SM -RA SCT049 BKN090 OVC110 24/23 A2996 RMK AO2 LTG DSNT W THRU NE T02390231

More Conditions Fewer Conditions

10-Day Weather Forecast

Almanac

Astronomy

Aug. 29, 2014 Rise Set
Actual Time 6:34 AM CDT 7:31 PM CDT
Civil Twilight 6:08 AM CDT 7:57 PM CDT
Nautical Twilight 5:38 AM CDT 8:27 PM CDT
Astronomical Twilight 5:07 AM CDT 8:58 PM CDT
Moon 10:10 AM CDT 9:43 PM CDT
Length of Visible Light 13h 48m
Length of Day
12h 57m
Tomorrow will be 1m 58s shorter.
Waxing Crescent, 16% of the Moon is Illuminated
Today
Waxing Crescent
Sep 2
First Quarter
Sep 8
Full
Sep 15
Last Quarter
Sep 24
New

Today's Extremes

State Highs State Lows

Community

WunderPhotos

Upload Photos

1,748,341 photos uploaded!

Nearby

Snow Depth

Station Depth Elevation
No new snow has been reported.

Earthquake Activity

City Distance Mag. Time & Date
No recent earthquake activity has been reported nearby.
Minimum magnitude displayed is 2.5.

Coastal Water Temperatures

Place Temperature
No Stations Reporting

Nearby Weather Stations